Time;durP1;ratioP1;P1;durP2;ratioP2;P2;SDS_P1;SDS_P2;PMS_P1;PMS_P2;Temp;Humidity;BMP_temperature;BMP_pressure;BME280_temperature;BME280_humidity;BME280_pressure;Samples;Min_cycle;Max_cycle;Signal;HPM_P1;HPM_P2
2021/12/06 00:02:07;;;;;;;14.68;7.00;;;;;;;-0.03;100.00;97780.72;5038755;28;20048;-61
2021/12/06 00:04:53;;;;;;;14.77;7.03;;;;;;;-0.43;100.00;97782.34;5025309;28;20440;-61
2021/12/06 00:07:39;;;;;;;11.13;6.15;;;;;;;-0.31;100.00;97775.88;5034178;28;20053;-61
2021/12/06 00:10:24;;;;;;;10.90;5.82;;;;;;;-0.32;100.00;97767.31;5032433;28;20068;-58
2021/12/06 00:13:11;;;;;;;10.93;6.10;;;;;;;-0.23;100.00;97779.00;5034021;28;20503;-61
2021/12/06 00:15:57;;;;;;;11.10;5.65;;;;;;;-0.17;100.00;97781.31;5033904;28;20499;-60
2021/12/06 00:18:44;;;;;;;10.93;5.60;;;;;;;-0.15;100.00;97778.66;5033847;28;20052;-61
2021/12/06 00:21:30;;;;;;;10.50;6.10;;;;;;;-0.16;100.00;97785.53;5033613;28;20360;-60
2021/12/06 00:24:16;;;;;;;12.85;6.43;;;;;;;-0.30;100.00;97775.81;5024625;28;20052;-58
2021/12/06 00:27:02;;;;;;;11.20;5.63;;;;;;;-0.22;100.00;97785.81;5038603;28;20049;-59
2021/12/06 00:29:48;;;;;;;12.35;6.63;;;;;;;-0.30;100.00;97790.41;5039729;28;20049;-59
2021/12/06 00:32:34;;;;;;;10.25;6.00;;;;;;;-0.46;100.00;97792.75;5033548;28;20060;-56
2021/12/06 00:35:23;;;;;;;10.90;5.75;;;;;;;-0.43;100.00;97805.50;5033650;28;20048;-61
2021/12/06 00:38:09;;;;;;;10.77;5.43;;;;;;;-0.35;100.00;97800.06;5032732;28;20048;-60
2021/12/06 00:40:55;;;;;;;12.85;6.20;;;;;;;-0.39;100.00;97792.44;5033411;28;20044;-60
2021/12/06 00:43:40;;;;;;;11.20;6.18;;;;;;;-0.29;100.00;97795.50;5032116;28;20479;-56
2021/12/06 00:46:26;;;;;;;12.45;6.63;;;;;;;-0.27;100.00;97791.13;5032007;28;20060;-60
2021/12/06 00:49:12;;;;;;;11.30;6.07;;;;;;;-0.09;100.00;97790.44;5032978;28;20048;-59
2021/12/06 00:51:58;;;;;;;11.82;5.95;;;;;;;-0.32;100.00;97769.03;5032017;28;20079;-58
2021/12/06 00:54:45;;;;;;;15.43;7.30;;;;;;;-0.39;100.00;97813.03;5033152;28;20056;-56
2021/12/06 00:57:31;;;;;;;13.10;6.30;;;;;;;-0.17;100.00;97822.50;5033025;28;20415;-61
2021/12/06 01:00:28;;;;;;;11.48;6.15;;;;;;;-0.10;100.00;97820.53;5031761;28;20068;-61
2021/12/06 01:03:25;;;;;;;13.07;6.22;;;;;;;-0.04;100.00;97828.00;5031676;28;20060;-60
2021/12/06 01:06:12;;;;;;;9.63;5.50;;;;;;;0.01;100.00;97824.41;5031963;28;20364;-60
2021/12/06 01:08:58;;;;;;;10.60;5.75;;;;;;;-0.10;100.00;97827.41;5031984;28;20048;-56
2021/12/06 01:11:44;;;;;;;12.02;6.20;;;;;;;-0.22;100.00;97808.13;5033093;28;20060;-59
2021/12/06 01:14:31;;;;;;;10.90;6.00;;;;;;;-0.15;100.00;97818.13;5032171;28;20843;-60
2021/12/06 01:17:17;;;;;;;10.02;5.88;;;;;;;-0.17;100.00;97837.09;5033088;28;20048;-59
2021/12/06 01:20:09;;;;;;;9.30;5.63;;;;;;;-0.39;100.00;97843.94;5031937;28;20496;-60
2021/12/06 01:23:05;;;;;;;8.88;5.60;;;;;;;-0.36;100.00;97834.44;5022078;28;20044;-56
2021/12/06 01:31:54;;;;;;;10.27;5.40;;;;;;;0.21;100.00;97829.56;5030886;28;20048;-60
2021/12/06 01:40:51;;;;;;;8.88;5.15;;;;;;;-0.15;100.00;97818.13;5031482;28;20052;-61
2021/12/06 01:44:14;;;;;;;12.68;6.25;;;;;;;-0.10;100.00;97823.09;5031259;28;20392;-61
2021/12/06 01:47:12;;;;;;;8.55;5.63;;;;;;;-0.02;100.00;97797.03;5031141;28;20049;-60
2021/12/06 01:50:11;;;;;;;8.88;5.13;;;;;;;-0.24;100.00;97797.88;5031224;28;20057;-61
2021/12/06 01:53:03;;;;;;;11.13;5.28;;;;;;;-0.20;100.00;97804.59;5031029;28;20060;-61
2021/12/06 01:55:50;;;;;;;10.13;5.75;;;;;;;-0.35;100.00;97806.03;5017841;28;20060;-62
2021/12/06 01:58:36;;;;;;;10.95;5.32;;;;;;;-0.18;100.00;97800.22;5032183;28;20061;-61
2021/12/06 02:01:22;;;;;;;9.93;5.80;;;;;;;-0.31;100.00;97792.13;5030862;28;20489;-60
2021/12/06 02:04:08;;;;;;;7.68;4.80;;;;;;;-0.34;100.00;97804.31;5030773;28;20052;-59
2021/12/06 02:06:55;;;;;;;8.80;5.40;;;;;;;-0.38;100.00;97804.41;5031878;28;20048;-60
2021/12/06 02:09:44;;;;;;;9.38;5.38;;;;;;;-0.22;100.00;97808.97;5030853;28;20052;-61
2021/12/06 02:12:32;;;;;;;8.32;5.15;;;;;;;-0.32;100.00;97807.66;5017228;28;20048;-56
2021/12/06 02:21:31;;;;;;;8.88;5.18;;;;;;;-0.58;100.00;97819.78;5031008;28;20049;-61
2021/12/06 02:24:17;;;;;;;9.60;5.78;;;;;;;-0.87;100.00;97815.72;5030573;28;20053;-60
2021/12/06 02:27:05;;;;;;;12.20;5.45;;;;;;;-0.70;100.00;97829.66;5030693;28;20060;-58
2021/12/06 02:29:53;;;;;;;10.27;5.55;;;;;;;-0.75;100.00;97839.28;5031360;28;20048;-60
2021/12/06 02:32:39;;;;;;;9.00;4.85;;;;;;;-0.76;100.00;97841.03;5031570;28;20360;-59
2021/12/06 02:35:27;;;;;;;7.40;4.57;;;;;;;-0.58;100.00;97835.22;5030490;28;20052;-59
2021/12/06 02:38:17;;;;;;;8.15;4.88;;;;;;;-0.55;100.00;97835.13;5017116;28;20042;-60
2021/12/06 02:41:03;;;;;;;8.75;4.97;;;;;;;-0.77;100.00;97823.06;5037434;28;20060;-61
2021/12/06 02:43:50;;;;;;;8.50;4.68;;;;;;;-0.48;100.00;97846.88;5030369;28;20041;-60
2021/12/06 02:46:37;;;;;;;10.13;5.30;;;;;;;-0.57;100.00;97852.38;5030617;28;20070;-61
2021/12/06 02:49:24;;;;;;;8.32;4.95;;;;;;;-0.51;100.00;97854.72;5037135;28;20064;-60
2021/12/06 02:52:11;;;;;;;7.97;4.60;;;;;;;-0.63;100.00;97846.56;5030616;28;20523;-63
2021/12/06 02:54:59;;;;;;;8.25;5.25;;;;;;;-0.45;100.00;97838.19;5030504;28;20052;-60
2021/12/06 02:57:53;;;;;;;9.90;5.75;;;;;;;-0.68;100.00;97829.59;5030478;28;20511;-59
2021/12/06 03:00:50;;;;;;;8.38;4.60;;;;;;;-0.51;100.00;97837.50;5030275;28;20045;-60
2021/12/06 03:03:37;;;;;;;9.75;4.85;;;;;;;-0.55;100.00;97837.69;5034113;28;20392;-62
2021/12/06 03:06:24;;;;;;;8.93;4.75;;;;;;;-0.33;100.00;97853.16;5034106;28;20527;-60
2021/12/06 03:09:19;;;;;;;7.32;4.28;;;;;;;-0.16;100.00;97857.66;5034269;28;20538;-60
2021/12/06 03:12:12;;;;;;;7.03;4.38;;;;;;;-0.37;100.00;97838.72;5033092;28;20053;-60
2021/12/06 03:15:00;;;;;;;10.30;5.30;;;;;;;-0.22;100.00;97852.75;5033972;28;20048;-62
2021/12/06 03:17:47;;;;;;;8.25;4.22;;;;;;;-0.27;100.00;97855.50;5034402;28;20052;-56
2021/12/06 03:20:33;;;;;;;9.90;4.97;;;;;;;-0.19;100.00;97862.91;5034494;28;20056;-60
2021/12/06 03:23:19;;;;;;;8.00;4.28;;;;;;;-0.26;100.00;97866.63;5061917;28;20056;-60
2021/12/06 03:26:06;;;;;;;8.50;5.00;;;;;;;-0.50;100.00;97861.53;5061943;28;20044;-57
2021/12/06 03:28:53;;;;;;;8.18;4.78;;;;;;;-0.35;100.00;97865.25;5061680;28;20381;-58
2021/12/06 03:31:41;;;;;;;8.00;5.05;;;;;;;-0.13;100.00;97865.25;5061818;28;20048;-60
2021/12/06 03:34:29;;;;;;;8.80;4.68;;;;;;;0.08;100.00;97869.63;5033463;28;20044;-60
2021/12/06 03:37:16;;;;;;;8.40;5.15;;;;;;;0.09;100.00;97869.56;5033526;28;20048;-57
2021/12/06 03:40:03;;;;;;;10.90;5.82;;;;;;;0.11;100.00;97864.34;5033488;28;20053;-54
2021/12/06 03:42:51;;;;;;;9.38;5.25;;;;;;;0.05;100.00;97851.72;5033452;28;20045;-58
2021/12/06 03:45:37;;;;;;;10.52;5.60;;;;;;;0.07;100.00;97867.94;5025231;28;20044;-54
2021/12/06 03:48:23;;;;;;;10.00;5.28;;;;;;;-0.18;100.00;97880.03;5051223;28;20689;-59
2021/12/06 03:51:09;;;;;;;10.85;5.30;;;;;;;0.09;100.00;97881.59;5053866;28;20051;-61
2021/12/06 03:53:55;;;;;;;9.88;5.50;;;;;;;-0.07;100.00;97889.94;5053213;28;20056;-59
2021/12/06 03:56:41;;;;;;;11.15;6.07;;;;;;;-0.19;100.00;97887.81;5054030;28;20048;-61
2021/12/06 03:59:27;;;;;;;9.38;4.90;;;;;;;-0.15;100.00;97894.53;5046776;28;20060;-61
2021/12/06 04:02:14;;;;;;;8.00;4.90;;;;;;;-0.13;100.00;97897.88;5029226;28;20068;-57
2021/12/06 04:05:00;;;;;;;11.18;6.03;;;;;;;-0.13;100.00;97893.56;5030985;28;20048;-60
2021/12/06 04:07:50;;;;;;;10.00;5.30;;;;;;;0.17;100.00;97902.75;5031529;28;20052;-60
2021/12/06 04:10:36;;;;;;;9.13;5.15;;;;;;;0.24;100.00;97901.59;5030596;28;20072;-60
2021/12/06 04:13:24;;;;;;;10.10;5.40;;;;;;;0.08;100.00;97906.50;5021134;28;20523;-60
2021/12/06 04:16:11;;;;;;;11.00;5.97;;;;;;;0.16;100.00;97911.38;5031427;28;20491;-63
2021/12/06 04:18:58;;;;;;;11.23;5.80;;;;;;;0.28;100.00;97901.47;5032603;28;20052;-58
2021/12/06 04:21:46;;;;;;;10.18;5.85;;;;;;;0.30;100.00;97905.66;5013926;28;20053;-60
2021/12/06 04:24:32;;;;;;;11.23;5.53;;;;;;;0.31;100.00;97899.59;5013719;28;20053;-60
2021/12/06 04:27:21;;;;;;;12.20;5.45;;;;;;;0.43;100.00;97906.00;5012912;28;20053;-60
2021/12/06 04:30:10;;;;;;;11.30;5.70;;;;;;;0.36;100.00;97914.88;5012726;28;20053;-58
2021/12/06 04:32:56;;;;;;;12.38;5.80;;;;;;;0.24;100.00;97916.22;5012728;28;20398;-59
2021/12/06 04:35:43;;;;;;;11.95;6.47;;;;;;;-0.10;100.00;97902.09;5013772;28;20053;-61
2021/12/06 04:38:29;;;;;;;18.02;7.50;;;;;;;-0.20;100.00;97912.75;5021172;28;20063;-59
2021/12/06 04:41:19;;;;;;;10.85;6.25;;;;;;;-0.03;100.00;97908.66;5030128;28;20049;-62
2021/12/06 04:44:05;;;;;;;12.57;6.15;;;;;;;-0.08;100.00;97910.59;5030813;28;20546;-64
2021/12/06 04:46:52;;;;;;;11.88;6.65;;;;;;;0.03;100.00;97915.34;5031925;28;20045;-60
2021/12/06 04:49:38;;;;;;;13.73;7.13;;;;;;;-0.22;100.00;97919.69;5031704;28;20041;-59
2021/12/06 04:52:24;;;;;;;11.57;6.35;;;;;;;-0.18;100.00;97923.81;5021217;28;20096;-60
2021/12/06 04:55:27;;;;;;;14.32;7.10;;;;;;;-0.31;100.00;97923.44;5032800;28;20512;-61
2021/12/06 04:58:18;;;;;;;10.35;5.30;;;;;;;-0.14;100.00;97921.97;5031328;28;20048;-63
2021/12/06 05:01:10;;;;;;;10.40;6.25;;;;;;;-0.38;100.00;97935.69;5031844;28;20064;-59
2021/12/06 05:04:00;;;;;;;12.77;6.40;;;;;;;-0.23;100.00;97941.19;5031949;28;20064;-60
2021/12/06 05:06:50;;;;;;;12.25;6.05;;;;;;;-0.26;100.00;97934.41;5023691;28;20935;-57
2021/12/06 05:09:39;;;;;;;13.73;6.35;;;;;;;-0.41;100.00;97937.56;5032962;28;20048;-59
2021/12/06 05:12:28;;;;;;;10.88;5.95;;;;;;;-0.19;100.00;97942.75;5031853;28;20048;-60
2021/12/06 05:15:14;;;;;;;8.68;4.70;;;;;;;-0.21;100.00;97947.09;5037409;28;20064;-60
2021/12/06 05:18:00;;;;;;;9.82;5.75;;;;;;;-0.42;100.00;97943.59;5031547;28;20056;-60
2021/12/06 05:20:46;;;;;;;10.07;5.43;;;;;;;-0.32;100.00;97941.50;5031726;28;20444;-60
2021/12/06 05:23:33;;;;;;;10.43;5.32;;;;;;;-0.29;100.00;97939.66;5030761;28;20048;-58
2021/12/06 05:26:19;;;;;;;9.63;4.90;;;;;;;-0.17;100.00;97947.84;5034191;28;20044;-56
2021/12/06 05:29:07;;;;;;;9.05;4.68;;;;;;;-0.08;100.00;97954.38;5036444;28;20060;-60
2021/12/06 05:31:57;;;;;;;9.80;5.05;;;;;;;0.03;100.00;97953.97;5017496;28;20052;-59
2021/12/06 05:34:44;;;;;;;6.93;4.38;;;;;;;-0.07;100.00;97950.91;5017462;28;20068;-59
2021/12/06 05:37:31;;;;;;;10.68;4.68;;;;;;;-0.04;100.00;97945.63;5034565;28;20376;-64
2021/12/06 05:40:26;;;;;;;8.55;4.32;;;;;;;0.19;100.00;97962.78;5031651;28;20048;-56
2021/12/06 05:43:12;;;;;;;7.82;4.43;;;;;;;-0.02;100.00;97962.69;5035987;28;20527;-57
2021/12/06 05:45:59;;;;;;;9.05;4.40;;;;;;;0.03;100.00;97961.69;5030254;28;20388;-55
2021/12/06 05:48:45;;;;;;;8.38;3.78;;;;;;;-0.01;100.00;97976.41;5031385;28;20044;-56
2021/12/06 05:51:30;;;;;;;9.00;4.30;;;;;;;-0.15;100.00;97975.19;5029263;28;20507;-59
2021/12/06 05:54:16;;;;;;;8.63;3.72;;;;;;;-0.26;100.00;97959.31;5030762;28;20048;-60
2021/12/06 05:57:05;;;;;;;9.32;3.67;;;;;;;-0.17;100.00;97977.00;5031463;28;20053;-59
2021/12/06 05:59:51;;;;;;;9.98;4.40;;;;;;;-0.24;100.00;97972.97;5030923;28;20052;-58
2021/12/06 06:02:37;;;;;;;5.28;3.90;;;;;;;-0.08;100.00;97991.25;5031335;28;20049;-56
2021/12/06 06:05:23;;;;;;;6.82;3.85;;;;;;;-0.17;100.00;97973.59;5031531;28;20467;-56
2021/12/06 06:08:09;;;;;;;6.40;4.13;;;;;;;0.08;100.00;97995.84;5031590;28;20053;-55
2021/12/06 06:10:55;;;;;;;8.00;4.07;;;;;;;-0.09;100.00;97986.16;5016096;28;20044;-59
2021/12/06 06:13:41;;;;;;;6.88;4.28;;;;;;;0.13;100.00;97995.69;5030175;28;20064;-53
2021/12/06 06:16:31;;;;;;;7.40;3.88;;;;;;;0.11;100.00;97993.97;5029632;28;20590;-58
2021/12/06 06:19:20;;;;;;;7.80;3.92;;;;;;;0.15;100.00;98007.59;5030021;28;20472;-58
2021/12/06 06:22:06;;;;;;;9.05;4.50;;;;;;;0.07;100.00;97999.31;5020793;28;20506;-60
2021/12/06 06:24:52;;;;;;;7.63;4.22;;;;;;;-0.05;100.00;98006.59;5030014;28;20388;-57
2021/12/06 06:27:38;;;;;;;8.68;4.43;;;;;;;0.04;100.00;98002.00;5030787;28;20124;-60
2021/12/06 06:30:24;;;;;;;8.70;4.15;;;;;;;0.20;100.00;98010.84;5031715;28;20068;-56
2021/12/06 06:33:09;;;;;;;8.35;4.13;;;;;;;0.15;100.00;98017.91;5031889;28;20463;-56
2021/12/06 06:35:55;;;;;;;7.05;4.05;;;;;;;0.20;100.00;98018.56;5037134;28;20392;-59
2021/12/06 06:38:41;;;;;;;9.25;4.20;;;;;;;0.31;100.00;98017.31;5034829;28;20056;-53
2021/12/06 06:41:30;;;;;;;8.32;4.20;;;;;;;0.52;100.00;98035.44;5028892;28;20053;-58
2021/12/06 06:44:17;;;;;;;8.10;4.35;;;;;;;0.82;100.00;98045.41;5015425;28;20447;-60
2021/12/06 06:47:03;;;;;;;6.07;3.65;;;;;;;0.90;100.00;98048.53;5034705;28;20048;-57
2021/12/06 06:49:50;;;;;;;10.10;4.82;;;;;;;0.59;100.00;98035.13;5015902;28;20049;-59
2021/12/06 06:52:35;;;;;;;9.85;5.15;;;;;;;0.65;100.00;98046.94;5020237;28;20045;-59
2021/12/06 06:55:22;;;;;;;10.20;5.32;;;;;;;0.67;100.00;98055.44;5021828;28;20052;-60
2021/12/06 06:58:07;;;;;;;11.68;5.28;;;;;;;0.62;100.00;98052.19;5035353;28;20052;-60
2021/12/06 07:00:53;;;;;;;6.95;3.85;;;;;;;0.61;100.00;98056.53;5034475;28;20047;-60
2021/12/06 07:03:40;;;;;;;14.45;6.03;;;;;;;0.63;100.00;98055.63;5031902;28;20049;-55
2021/12/06 07:06:27;;;;;;;11.32;5.35;;;;;;;0.66;100.00;98065.81;5031410;28;20041;-56
2021/12/06 07:09:13;;;;;;;11.70;5.75;;;;;;;0.78;100.00;98060.19;5034243;28;20373;-57
2021/12/06 07:12:00;;;;;;;11.70;5.65;;;;;;;1.10;100.00;98072.69;5034250;28;20490;-56
2021/12/06 07:14:47;;;;;;;8.27;4.78;;;;;;;0.99;100.00;98073.13;5053751;28;20063;-55
2021/12/06 07:17:33;;;;;;;12.15;5.78;;;;;;;1.13;100.00;98088.03;5033370;28;20064;-59
2021/12/06 07:20:20;;;;;;;17.23;5.97;;;;;;;1.21;100.00;98088.56;5033918;28;20393;-56
2021/12/06 07:23:07;;;;;;;9.73;4.88;;;;;;;1.49;100.00;98089.16;5037367;28;20056;-59
2021/12/06 07:25:53;;;;;;;10.80;4.63;;;;;;;1.50;100.00;98100.34;5038319;28;20064;-62
2021/12/06 07:28:41;;;;;;;10.90;5.43;;;;;;;1.52;100.00;98103.69;5034973;28;20399;-54
2021/12/06 07:31:28;;;;;;;10.70;4.50;;;;;;;1.51;100.00;98095.09;5032177;28;20049;-60
2021/12/06 07:34:13;;;;;;;14.10;5.80;;;;;;;1.77;100.00;98090.56;5033529;28;20040;-60
2021/12/06 07:36:59;;;;;;;12.57;6.57;;;;;;;1.81;100.00;98102.44;5032865;28;20516;-61
2021/12/06 07:39:45;;;;;;;11.07;5.68;;;;;;;1.80;100.00;98098.19;5034394;28;20060;-54
2021/12/06 07:42:31;;;;;;;13.88;6.10;;;;;;;1.64;100.00;98099.75;5025404;28;20061;-59
2021/12/06 07:45:18;;;;;;;15.45;6.82;;;;;;;1.51;100.00;98107.16;5038697;28;20045;-59
2021/12/06 07:48:06;;;;;;;14.18;6.22;;;;;;;1.52;100.00;98108.88;5031920;28;20048;-59
2021/12/06 07:50:52;;;;;;;11.35;6.10;;;;;;;1.48;100.00;98114.13;5032667;28;20040;-61
2021/12/06 07:53:39;;;;;;;11.02;5.82;;;;;;;1.45;100.00;98100.53;5033890;28;20060;-59
2021/12/06 07:56:25;;;;;;;13.18;6.40;;;;;;;1.32;100.00;98111.34;5043975;28;20502;-57
2021/12/06 07:59:12;;;;;;;11.77;5.05;;;;;;;1.40;100.00;98098.16;5051034;28;20052;-62
2021/12/06 08:01:57;;;;;;;12.40;6.07;;;;;;;1.53;100.00;98097.63;5061285;28;20496;-55
2021/12/06 08:04:43;;;;;;;14.60;6.70;;;;;;;1.70;100.00;98097.75;5033445;28;20056;-60
2021/12/06 08:07:29;;;;;;;12.50;5.90;;;;;;;2.15;100.00;98092.38;5034341;28;20056;-59
2021/12/06 08:10:15;;;;;;;11.55;6.00;;;;;;;1.91;99.98;98102.88;5032855;28;20052;-57
2021/12/06 08:13:01;;;;;;;11.57;5.53;;;;;;;1.95;100.00;98108.75;5032541;28;20049;-61
2021/12/06 08:15:48;;;;;;;14.20;6.57;;;;;;;1.23;100.00;98120.31;5030428;28;21447;-62
2021/12/06 08:18:34;;;;;;;11.63;5.90;;;;;;;1.32;100.00;98110.53;5031576;28;20049;-61
2021/12/06 08:21:22;;;;;;;10.32;5.43;;;;;;;1.35;100.00;98118.97;5033035;28;20101;-56
2021/12/06 08:24:09;;;;;;;10.93;5.55;;;;;;;1.46;100.00;98126.28;5021890;28;20048;-63
2021/12/06 08:26:54;;;;;;;14.30;7.20;;;;;;;1.54;100.00;98135.44;5032187;28;20478;-62
2021/12/06 08:29:42;;;;;;;10.85;5.40;;;;;;;1.18;100.00;98129.13;5032244;28;20058;-61
2021/12/06 08:32:27;;;;;;;10.30;6.10;;;;;;;1.39;100.00;98122.25;5032839;28;20361;-55
2021/12/06 08:35:13;;;;;;;12.43;5.72;;;;;;;1.26;100.00;98121.94;5033911;28;20499;-63
2021/12/06 08:37:59;;;;;;;13.18;6.68;;;;;;;1.07;100.00;98127.00;5022568;28;20045;-61
2021/12/06 08:40:46;;;;;;;13.00;6.05;;;;;;;1.09;100.00;98128.59;5032819;28;20056;-57
2021/12/06 08:43:32;;;;;;;10.70;5.07;;;;;;;1.46;100.00;98135.75;5031152;28;20044;-65
2021/12/06 08:46:22;;;;;;;13.02;6.10;;;;;;;1.42;100.00;98134.22;5023982;28;20060;-61
2021/12/06 08:49:09;;;;;;;12.38;5.95;;;;;;;1.58;100.00;98155.91;5030824;28;20044;-60
2021/12/06 08:51:57;;;;;;;10.60;5.15;;;;;;;1.71;100.00;98156.22;5033399;28;20051;-59
2021/12/06 08:54:44;;;;;;;12.50;5.75;;;;;;;1.41;100.00;98155.75;5033131;28;20052;-61
2021/12/06 08:57:30;;;;;;;15.15;6.03;;;;;;;0.98;100.00;98135.94;5032553;28;20057;-60
2021/12/06 09:00:23;;;;;;;13.50;5.93;;;;;;;1.30;100.00;98154.47;5031165;28;20404;-56
2021/12/06 09:03:11;;;;;;;9.98;5.13;;;;;;;1.48;100.00;98163.19;5032152;28;20052;-61
2021/12/06 09:05:58;;;;;;;11.25;5.05;;;;;;;1.48;100.00;98168.34;5021744;28;20467;-62
2021/12/06 09:08:44;;;;;;;10.63;5.60;;;;;;;1.47;100.00;98168.41;5033032;28;20048;-59
2021/12/06 09:11:30;;;;;;;14.10;6.20;;;;;;;1.38;100.00;98179.97;5025545;28;20052;-62
2021/12/06 09:14:17;;;;;;;12.25;6.03;;;;;;;1.15;100.00;98161.06;5032544;28;20056;-58
2021/12/06 09:17:03;;;;;;;13.10;5.30;;;;;;;1.26;100.00;98183.88;5037249;28;20052;-61
2021/12/06 09:19:49;;;;;;;9.95;4.80;;;;;;;1.52;100.00;98176.81;5031505;28;20135;-61
2021/12/06 09:22:35;;;;;;;12.95;6.13;;;;;;;1.39;99.94;98186.81;5031531;28;20053;-59
2021/12/06 09:25:22;;;;;;;13.02;6.57;;;;;;;1.37;100.00;98180.88;5032560;28;20052;-60
2021/12/06 09:28:08;;;;;;;17.50;6.65;;;;;;;1.40;100.00;98179.91;5030867;28;20044;-62
2021/12/06 09:30:54;;;;;;;12.32;5.43;;;;;;;1.32;100.00;98162.16;5037145;28;20504;-59
2021/12/06 09:33:40;;;;;;;14.73;6.20;;;;;;;1.59;100.00;98182.56;5032476;28;20052;-60
2021/12/06 09:36:27;;;;;;;11.48;5.53;;;;;;;1.48;100.00;98170.94;5037744;28;20514;-60
2021/12/06 09:39:14;;;;;;;14.85;5.45;;;;;;;1.37;100.00;98174.88;5031553;28;20041;-61
2021/12/06 09:42:01;;;;;;;11.32;5.28;;;;;;;1.53;100.00;98163.03;5016989;28;20040;-59
2021/12/06 09:44:49;;;;;;;13.32;6.80;;;;;;;1.56;99.21;98173.22;5032923;28;20048;-60
2021/12/06 09:47:35;;;;;;;16.17;5.43;;;;;;;1.53;100.00;98180.25;5037439;28;20380;-60
2021/12/06 09:50:27;;;;;;;10.98;6.45;;;;;;;1.54;99.76;98174.16;5032515;28;20044;-60
2021/12/06 09:53:15;;;;;;;;;;;;;;;1.48;100.00;98183.84;5033023;28;20045;-56
2021/12/06 09:56:08;;;;;;;13.25;5.80;;;;;;;1.74;99.61;98183.69;5032727;28;19913;-60
2021/12/06 09:58:56;;;;;;;12.43;5.45;;;;;;;1.69;98.85;98175.28;5038399;28;20048;-62
2021/12/06 10:01:48;;;;;;;13.77;5.70;;;;;;;1.95;97.68;98170.75;5037219;28;20057;-60
2021/12/06 10:04:39;;;;;;;16.27;6.35;;;;;;;3.54;97.99;98162.75;5031376;28;20060;-61
2021/12/06 10:07:25;;;;;;;10.95;4.90;;;;;;;2.78;94.48;98157.66;5031550;28;20056;-64
2021/12/06 10:10:13;;;;;;;11.70;5.65;;;;;;;3.16;95.97;98161.09;5017797;28;20048;-64
2021/12/06 10:13:00;;;;;;;10.02;5.10;;;;;;;3.05;92.12;98156.44;5031062;28;20625;-63
2021/12/06 10:15:48;;;;;;;6.40;3.53;;;;;;;3.84;100.00;98156.09;5031736;28;20052;-64
2021/12/06 10:18:34;;;;;;;13.25;5.72;;;;;;;3.48;88.83;98157.88;5025433;28;20052;-61
2021/12/06 10:21:23;;;;;;;11.27;6.00;;;;;;;2.57;91.65;98168.09;5029420;28;20048;-57
2021/12/06 10:24:13;;;;;;;10.25;5.43;;;;;;;3.31;91.48;98155.16;5035694;28;20064;-60
2021/12/06 10:27:07;;;;;;;12.15;5.18;;;;;;;2.42;92.95;98145.47;5030670;28;20041;-60
2021/12/06 10:30:03;;;;;;;12.25;5.05;;;;;;;2.44;94.46;98141.09;5036887;28;20064;-60
2021/12/06 10:32:59;;;;;;;11.52;5.22;;;;;;;2.61;91.68;98136.91;5030533;28;20056;-52
2021/12/06 10:35:49;;;;;;;15.32;6.28;;;;;;;2.25;93.55;98130.72;5036576;28;20057;-58
2021/12/06 10:38:38;;;;;;;12.38;4.97;;;;;;;2.34;93.65;98132.91;5030107;28;20056;-60
2021/12/06 10:41:26;;;;;;;12.40;5.75;;;;;;;2.14;93.56;98142.38;5009188;28;20071;-60
2021/12/06 10:44:14;;;;;;;11.02;5.45;;;;;;;2.03;94.43;98136.84;5031622;28;20080;-64
2021/12/06 10:46:59;;;;;;;12.15;5.30;;;;;;;1.87;94.74;98144.41;5031817;28;20037;-62
2021/12/06 10:49:48;;;;;;;13.77;6.30;;;;;;;2.04;94.03;98139.34;5031902;28;20068;-60
2021/12/06 10:52:34;;;;;;;13.90;5.95;;;;;;;1.91;94.28;98131.28;5022732;28;20052;-60
2021/12/06 10:55:24;;;;;;;11.93;5.72;;;;;;;2.08;94.03;98125.41;5010890;28;20057;-54
2021/12/06 10:58:18;;;;;;;;;;;;;;;2.05;94.01;98135.88;4998159;28;20049;-66
2021/12/06 11:01:05;;;;;;;12.88;5.53;;;;;;;2.20;93.73;98124.00;5017560;28;19925;-59
2021/12/06 11:03:53;;;;;;;15.77;6.32;;;;;;;2.08;94.17;98130.56;5011873;28;20508;-54
2021/12/06 11:06:45;;;;;;;15.02;5.43;;;;;;;2.02;93.47;98124.84;5011802;28;20049;-59
2021/12/06 11:09:32;;;;;;;;;;;;;;;2.12;93.34;98127.84;5011322;28;20389;-58
2021/12/06 11:12:19;;;;;;;13.02;5.45;;;;;;;2.27;92.55;98128.94;5013769;28;19913;-56
2021/12/06 11:15:13;;;;;;;11.32;4.65;;;;;;;3.59;100.00;98124.47;5057537;28;20592;-60
2021/12/06 11:18:00;;;;;;;12.18;4.97;;;;;;;3.11;90.03;98126.81;5030435;28;20052;-59
2021/12/06 11:20:48;;;;;;;10.07;5.60;;;;;;;3.01;88.95;98116.06;5030243;28;20040;-61
2021/12/06 11:23:34;;;;;;;9.90;4.97;;;;;;;3.30;88.30;98119.84;5051406;28;20048;-58
2021/12/06 11:26:20;;;;;;;12.85;5.63;;;;;;;2.95;88.07;98120.63;5034624;28;20068;-61
2021/12/06 11:29:21;;;;;;;13.77;4.93;;;;;;;2.52;90.09;98122.63;5062090;28;20055;-59
2021/12/06 11:32:09;;;;;;;11.32;5.43;;;;;;;2.53;90.95;98117.38;5034089;28;20071;-62
2021/12/06 11:35:03;;;;;;;12.55;5.22;;;;;;;2.56;90.86;98106.91;5034678;28;20476;-61
2021/12/06 11:37:52;;;;;;;10.95;5.68;;;;;;;2.45;91.35;98101.38;5034058;28;20049;-61
2021/12/06 11:40:39;;;;;;;14.77;5.97;;;;;;;2.48;91.62;98103.00;5034923;28;20060;-54
2021/12/06 11:43:26;;;;;;;11.48;5.13;;;;;;;3.31;92.28;98116.31;5034121;28;20056;-54
2021/12/06 11:46:12;;;;;;;13.43;5.50;;;;;;;2.61;89.82;98108.44;5027099;28;20468;-65
2021/12/06 11:48:58;;;;;;;9.75;5.55;;;;;;;2.19;92.09;98095.66;5030826;28;20043;-62
2021/12/06 11:51:44;;;;;;;12.00;5.80;;;;;;;2.45;91.63;98116.91;5034532;28;20048;-59
2021/12/06 11:54:39;;;;;;;14.52;5.35;;;;;;;2.46;92.57;98116.00;5033901;28;20052;-61
2021/12/06 11:57:29;;;;;;;12.95;5.43;;;;;;;2.24;92.05;98122.13;5034353;28;20049;-62
2021/12/06 12:00:21;;;;;;;13.82;6.13;;;;;;;2.01;93.17;98108.47;5033046;28;20052;-62
2021/12/06 12:03:08;;;;;;;12.02;5.13;;;;;;;2.07;92.39;98131.47;5033152;28;20060;-62
2021/12/06 12:05:53;;;;;;;14.77;5.60;;;;;;;2.13;92.96;98116.59;5039137;28;20058;-64
2021/12/06 12:08:39;;;;;;;11.80;5.57;;;;;;;2.31;92.47;98139.06;5033108;28;20052;-59
2021/12/06 12:11:25;;;;;;;18.95;5.90;;;;;;;2.27;91.47;98144.44;5033561;28;20052;-59
2021/12/06 12:14:11;;;;;;;11.20;6.22;;;;;;;2.05;92.36;98138.47;5039282;28;20503;-60
2021/12/06 12:17:00;;;;;;;11.32;5.30;;;;;;;2.12;93.19;98141.63;5038946;28;20040;-60
2021/12/06 12:19:49;;;;;;;12.20;5.45;;;;;;;1.85;93.24;98154.81;5038966;28;20053;-59
2021/12/06 12:22:37;;;;;;;10.70;5.28;;;;;;;1.84;93.15;98150.56;5024734;28;20048;-61
2021/12/06 12:25:30;;;;;;;11.40;5.10;;;;;;;2.12;92.31;98153.69;5059478;28;20044;-55
2021/12/06 12:28:27;;;;;;;11.95;5.90;;;;;;;1.94;92.34;98164.75;5028633;28;20072;-60
2021/12/06 12:31:13;;;;;;;11.50;5.35;;;;;;;1.82;92.95;98158.38;5024481;28;20048;-59
2021/12/06 12:33:58;;;;;;;13.55;5.88;;;;;;;1.79;93.08;98168.00;5033181;28;20044;-58
2021/12/06 12:36:45;;;;;;;11.85;5.43;;;;;;;2.22;92.22;98179.06;5032552;28;20060;-58
2021/12/06 12:39:30;;;;;;;12.52;6.13;;;;;;;2.06;91.44;98171.16;5033223;28;20052;-59
2021/12/06 12:42:17;;;;;;;13.95;6.20;;;;;;;2.05;90.32;98153.97;5033586;28;20052;-59
2021/12/06 12:45:05;;;;;;;14.90;6.28;;;;;;;1.70;91.56;98172.63;5052728;28;20060;-59
2021/12/06 12:47:56;;;;;;;12.43;5.57;;;;;;;2.19;92.98;98188.69;5032915;28;20392;-58
2021/12/06 12:51:00;;;;;;;12.57;5.88;;;;;;;2.79;98.34;98181.78;5033688;28;20053;-57
2021/12/06 12:54:10;;;;;;;11.77;5.50;;;;;;;2.49;91.60;98177.94;5038925;28;20056;-63
2021/12/06 12:57:03;;;;;;;8.05;4.35;;;;;;;2.77;93.12;98197.38;5038813;28;20392;-61
2021/12/06 12:59:57;;;;;;;10.75;5.35;;;;;;;3.52;87.54;98201.69;5033823;28;20056;-60
2021/12/06 13:02:42;;;;;;;12.45;5.18;;;;;;;2.92;87.79;98205.34;5024524;28;20440;-62
2021/12/06 13:05:29;;;;;;;11.98;5.18;;;;;;;2.81;87.85;98198.06;5038173;28;20491;-58
2021/12/06 13:08:15;;;;;;;8.65;4.75;;;;;;;3.05;95.28;98206.44;5032121;28;20396;-61
2021/12/06 13:11:01;;;;;;;8.57;4.50;;;;;;;3.40;92.04;98202.25;5033542;28;20050;-61
2021/12/06 13:13:50;;;;;;;8.60;4.18;;;;;;;3.30;90.63;98207.88;5033555;28;20052;-60
2021/12/06 13:16:44;;;;;;;11.90;4.88;;;;;;;3.39;87.19;98198.84;5031886;28;20048;-56
2021/12/06 13:19:42;;;;;;;15.88;6.05;;;;;;;2.87;86.43;98207.31;5037173;28;20049;-63
2021/12/06 13:22:31;;;;;;;13.57;5.35;;;;;;;2.17;88.65;98214.63;5031077;28;20044;-63